createdAt,value
2022-10-22T00:01:11.929Z,7.79
2022-10-22T00:03:41.624Z,7.50
2022-10-22T00:06:09.911Z,7.30
2022-10-22T00:08:38.179Z,7.02
2022-10-22T00:11:11.191Z,7.14
2022-10-22T00:13:39.562Z,6.99
2022-10-22T00:16:07.790Z,7.02
2022-10-22T00:18:37.063Z,7.16
2022-10-22T00:21:08.078Z,7.06
2022-10-22T00:23:36.649Z,7.33
2022-10-22T00:26:04.966Z,7.26
2022-10-22T00:28:33.237Z,7.43
2022-10-22T00:31:02.755Z,7.32
2022-10-22T00:33:31.438Z,7.20
2022-10-22T00:36:00.034Z,6.92
2022-10-22T00:38:29.532Z,7.04
2022-10-22T00:40:58.013Z,6.94
2022-10-22T00:43:26.210Z,6.87
2022-10-22T00:45:54.239Z,6.57
2022-10-22T00:48:26.758Z,6.33
2022-10-22T00:50:59.180Z,6.59
2022-10-22T00:53:31.507Z,6.60
2022-10-22T00:56:00.234Z,6.74
2022-10-22T00:58:32.317Z,6.77
2022-10-22T01:01:00.728Z,6.71
2022-10-22T01:03:30.312Z,6.77
2022-10-22T01:06:00.785Z,6.50
2022-10-22T01:08:43.059Z,6.45
2022-10-22T01:11:18.397Z,6.51
2022-10-22T01:13:53.898Z,6.33
2022-10-22T01:16:30.341Z,6.55
2022-10-22T01:19:10.356Z,6.55
2022-10-22T01:21:44.143Z,6.77
2022-10-22T01:24:26.293Z,6.67
2022-10-22T01:27:17.075Z,6.37
2022-10-22T01:29:51.974Z,6.28
2022-10-22T01:32:23.600Z,6.34
2022-10-22T01:34:55.404Z,6.28
2022-10-22T01:37:27.409Z,6.38
2022-10-22T01:39:57.379Z,6.07
2022-10-22T01:42:26.362Z,6.19
2022-10-22T01:44:56.156Z,6.13
2022-10-22T01:47:38.146Z,6.44
2022-10-22T01:50:22.103Z,6.69
2022-10-22T01:53:04.665Z,6.84
2022-10-22T01:55:44.902Z,6.93
2022-10-22T01:58:23.201Z,6.60
2022-10-22T02:01:02.107Z,6.29
2022-10-22T02:03:36.580Z,6.51
2022-10-22T02:06:10.879Z,6.37
2022-10-22T02:08:40.593Z,6.14
2022-10-22T02:11:10.714Z,6.02
2022-10-22T02:13:44.592Z,5.79
2022-10-22T02:16:18.486Z,6.03
2022-10-22T02:18:50.642Z,6.12
2022-10-22T02:21:19.675Z,6.44
2022-10-22T02:23:48.061Z,6.44
2022-10-22T02:26:24.384Z,6.25
2022-10-22T02:29:00.262Z,5.95
2022-10-22T02:31:33.146Z,5.89
2022-10-22T02:34:08.293Z,5.82
2022-10-22T02:36:38.652Z,5.56
2022-10-22T02:39:10.069Z,5.77
2022-10-22T02:41:39.293Z,5.46
2022-10-22T02:44:11.161Z,5.65
2022-10-22T02:46:42.054Z,5.92
2022-10-22T02:49:10.340Z,5.78
2022-10-22T02:51:38.850Z,5.93
2022-10-22T02:54:07.221Z,5.71
2022-10-22T02:56:35.882Z,5.76
2022-10-22T02:59:04.077Z,5.53
2022-10-22T03:01:32.239Z,5.55
2022-10-22T03:04:04.466Z,5.50
2022-10-22T03:06:32.848Z,5.30
2022-10-22T03:09:00.953Z,5.40
2022-10-22T03:11:29.759Z,5.42
2022-10-22T03:13:57.838Z,5.42
2022-10-22T03:16:25.949Z,5.65
2022-10-22T03:18:53.987Z,5.38
2022-10-22T03:21:30.943Z,5.73
2022-10-22T03:24:01.180Z,5.47
2022-10-22T03:26:29.618Z,5.34
2022-10-22T03:28:58.771Z,5.27
2022-10-22T03:31:27.015Z,5.23
2022-10-22T03:33:55.693Z,5.41
2022-10-22T03:36:25.277Z,5.15
2022-10-22T03:38:55.912Z,5.27
2022-10-22T03:41:24.496Z,5.44
2022-10-22T03:43:54.882Z,5.44
2022-10-22T03:46:23.904Z,5.57
2022-10-22T03:48:52.342Z,5.55
2022-10-22T03:51:20.447Z,5.48
2022-10-22T03:53:50.440Z,5.19
2022-10-22T03:56:18.613Z,5.00
2022-10-22T03:58:47.915Z,4.66
2022-10-22T04:01:16.708Z,4.95
2022-10-22T04:03:44.924Z,5.05
2022-10-22T04:06:14.322Z,5.15
2022-10-22T04:08:45.361Z,4.91
2022-10-22T04:11:16.499Z,5.23
2022-10-22T04:13:45.298Z,5.01
2022-10-22T04:16:16.362Z,5.19
2022-10-22T04:18:45.650Z,4.92
2022-10-22T04:21:16.174Z,4.98
2022-10-22T04:23:46.999Z,4.95
2022-10-22T04:26:17.855Z,4.88
2022-10-22T04:28:46.987Z,4.88
2022-10-22T04:31:17.318Z,5.23
2022-10-22T04:33:45.913Z,4.94
2022-10-22T04:36:16.031Z,5.13
2022-10-22T04:38:45.946Z,5.23
2022-10-22T04:41:17.061Z,5.21
2022-10-22T04:43:46.200Z,5.00
2022-10-22T04:46:15.642Z,5.13
2022-10-22T04:48:45.709Z,5.37
2022-10-22T04:51:16.376Z,5.26
2022-10-22T04:53:45.469Z,4.81
2022-10-22T04:56:21.031Z,5.06
2022-10-22T04:58:50.348Z,5.07
2022-10-22T05:01:21.123Z,5.10
2022-10-22T05:03:52.992Z,5.18
2022-10-22T05:06:23.251Z,5.14
2022-10-22T05:08:55.336Z,5.14
2022-10-22T05:11:27.996Z,5.24
2022-10-22T05:13:57.673Z,5.29
2022-10-22T05:16:27.104Z,5.24
2022-10-22T05:18:55.419Z,5.53
2022-10-22T05:21:23.528Z,5.27
2022-10-22T05:23:52.266Z,5.23
2022-10-22T05:26:22.511Z,5.30
2022-10-22T05:28:52.603Z,5.23
2022-10-22T05:31:21.595Z,5.16
2022-10-22T05:33:49.858Z,5.01
2022-10-22T05:36:21.614Z,5.00
2022-10-22T05:38:50.217Z,5.06
2022-10-22T05:41:20.211Z,5.16
2022-10-22T05:43:48.575Z,4.96
2022-10-22T05:46:22.817Z,5.32
2022-10-22T05:48:51.868Z,5.17
2022-10-22T05:51:20.447Z,5.11
2022-10-22T05:53:53.416Z,5.39
2022-10-22T05:56:22.045Z,5.52
2022-10-22T05:58:50.297Z,5.59
2022-10-22T06:01:22.065Z,5.67
2022-10-22T06:03:50.865Z,5.79
2022-10-22T06:06:22.737Z,5.89
2022-10-22T06:08:52.889Z,5.81
2022-10-22T06:11:22.422Z,6.08
2022-10-22T06:13:51.825Z,5.98
2022-10-22T06:16:21.456Z,6.11
2022-10-22T06:18:49.639Z,6.14
2022-10-22T06:21:18.180Z,6.10
2022-10-22T06:23:46.613Z,6.09
2022-10-22T06:26:15.842Z,5.95
2022-10-22T06:28:44.286Z,5.84
2022-10-22T06:31:12.709Z,5.74
2022-10-22T06:33:43.428Z,5.96
2022-10-22T06:36:13.753Z,6.28
2022-10-22T06:38:42.799Z,6.40
2022-10-22T06:41:13.558Z,6.54
2022-10-22T06:43:41.942Z,6.59
2022-10-22T06:46:14.779Z,7.05
2022-10-22T06:48:50.785Z,7.35
2022-10-22T06:51:19.978Z,7.33
2022-10-22T06:53:48.736Z,7.09
2022-10-22T06:56:19.581Z,7.26
2022-10-22T06:58:48.678Z,7.34
2022-10-22T07:01:18.759Z,7.25
2022-10-22T07:03:48.699Z,7.23
2022-10-22T07:06:16.950Z,7.63
2022-10-22T07:08:46.204Z,7.81
2022-10-22T07:11:16.487Z,7.87
2022-10-22T07:13:45.850Z,8.27
2022-10-22T07:16:14.632Z,8.17
2022-10-22T07:18:45.107Z,8.20
2022-10-22T07:21:16.657Z,8.14
2022-10-22T07:23:45.407Z,8.06
2022-10-22T07:26:15.748Z,8.23
2022-10-22T07:28:44.274Z,8.48
2022-10-22T07:31:14.599Z,8.52
2022-10-22T07:33:43.056Z,8.66
2022-10-22T07:36:18.149Z,8.89
2022-10-22T07:38:46.859Z,8.98
2022-10-22T07:41:16.096Z,8.82
2022-10-22T07:43:44.535Z,9.19
2022-10-22T07:46:13.075Z,9.45
2022-10-22T07:48:42.941Z,9.53
2022-10-22T07:51:11.575Z,9.82
2022-10-22T07:53:42.194Z,9.92
2022-10-22T07:56:11.261Z,9.92
2022-10-22T07:58:39.644Z,9.93
2022-10-22T08:01:08.542Z,10.26
2022-10-22T08:03:37.531Z,10.31
2022-10-22T08:06:06.422Z,10.39
2022-10-22T08:08:34.959Z,10.51
2022-10-22T08:11:05.116Z,10.53
2022-10-22T08:13:33.605Z,10.45
2022-10-22T08:16:01.727Z,10.24
2022-10-22T08:18:30.648Z,10.56
2022-10-22T08:20:59.827Z,10.78
2022-10-22T08:23:29.028Z,10.69
2022-10-22T08:25:58.681Z,11.01
2022-10-22T08:28:29.922Z,10.87
2022-10-22T08:30:58.171Z,10.89
2022-10-22T08:33:26.658Z,11.01
2022-10-22T08:35:54.848Z,11.31
2022-10-22T08:38:24.352Z,11.10
2022-10-22T08:40:55.243Z,10.99
2022-10-22T08:43:43.231Z,11.32
2022-10-22T08:46:27.762Z,11.33
2022-10-22T08:48:58.212Z,11.26
2022-10-22T08:51:29.920Z,11.42
2022-10-22T08:54:18.991Z,11.39
2022-10-22T08:56:54.168Z,11.47
2022-10-22T08:59:34.440Z,11.81
2022-10-22T09:02:06.320Z,12.00
2022-10-22T09:04:41.711Z,12.44
2022-10-22T09:07:11.717Z,12.40
2022-10-22T09:09:44.666Z,12.57
2022-10-22T09:12:20.194Z,12.62
2022-10-22T09:14:50.797Z,12.79
2022-10-22T09:17:27.574Z,12.80
2022-10-22T09:20:05.343Z,12.92
2022-10-22T09:22:40.161Z,12.87
2022-10-22T09:25:20.821Z,12.72
2022-10-22T09:27:50.411Z,12.84
2022-10-22T09:30:22.551Z,13.41
2022-10-22T09:32:54.001Z,13.56
2022-10-22T09:35:25.815Z,13.47
2022-10-22T09:37:56.863Z,13.59
2022-10-22T09:40:25.701Z,13.81
2022-10-22T09:42:54.248Z,13.81
2022-10-22T09:45:27.204Z,13.88
2022-10-22T09:48:10.703Z,14.05
2022-10-22T09:50:44.320Z,13.94
2022-10-22T09:53:20.672Z,14.01
2022-10-22T09:58:22.434Z,14.09
2022-10-22T10:00:56.296Z,14.16
2022-10-22T10:03:26.772Z,14.32
2022-10-22T10:06:00.064Z,14.41
2022-10-22T10:08:32.051Z,14.33
2022-10-22T10:11:05.738Z,14.24
2022-10-22T10:13:47.736Z,14.05
2022-10-22T10:16:33.142Z,14.40
2022-10-22T10:19:14.929Z,14.71
2022-10-22T10:21:54.860Z,14.76
2022-10-22T10:24:34.097Z,15.02
2022-10-22T10:27:09.042Z,15.24
2022-10-22T10:29:46.994Z,15.25
2022-10-22T10:32:29.975Z,14.66
2022-10-22T10:35:08.019Z,14.91
2022-10-22T10:37:45.545Z,15.17
2022-10-22T10:40:26.947Z,15.06
2022-10-22T10:43:00.005Z,15.33
2022-10-22T10:45:34.625Z,15.50
2022-10-22T10:48:30.326Z,15.50
2022-10-22T10:51:08.849Z,15.88
2022-10-22T10:53:52.108Z,15.89
2022-10-22T10:56:39.316Z,16.21
2022-10-22T10:59:25.258Z,16.40
2022-10-22T11:02:14.986Z,16.53
2022-10-22T11:05:23.713Z,16.66
2022-10-22T11:07:58.070Z,16.64
2022-10-22T11:10:31.618Z,16.56
2022-10-22T11:13:08.268Z,16.69
2022-10-22T11:15:38.676Z,16.81
2022-10-22T11:18:17.202Z,16.93
2022-10-22T11:20:53.257Z,17.08
2022-10-22T11:23:29.753Z,17.20
2022-10-22T11:25:58.193Z,17.20
2022-10-22T11:28:33.778Z,17.23
2022-10-22T11:31:05.602Z,17.25
2022-10-22T11:33:45.228Z,17.24
2022-10-22T11:36:15.616Z,17.16
2022-10-22T11:38:44.094Z,17.47
2022-10-22T11:41:14.777Z,17.38
2022-10-22T11:44:00.674Z,17.59
2022-10-22T11:46:41.798Z,17.87
2022-10-22T11:49:20.451Z,18.08
2022-10-22T11:51:51.242Z,18.19
2022-10-22T11:54:33.080Z,18.10
2022-10-22T11:57:21.347Z,18.10
2022-10-22T11:59:52.829Z,18.02
2022-10-22T12:02:42.969Z,17.40
2022-10-22T12:05:44.920Z,17.56
2022-10-22T12:08:33.031Z,17.74
2022-10-22T12:11:16.416Z,18.25
2022-10-22T12:14:22.992Z,18.29
2022-10-22T12:16:57.828Z,18.06
2022-10-22T12:19:30.639Z,18.27
2022-10-22T12:22:01.154Z,18.17
2022-10-22T12:24:36.044Z,17.92
2022-10-22T12:27:05.058Z,18.13
2022-10-22T12:29:35.163Z,18.20
2022-10-22T12:32:06.807Z,17.88
2022-10-22T12:34:34.988Z,17.89
2022-10-22T12:37:07.208Z,17.71
2022-10-22T12:39:36.772Z,17.77
2022-10-22T12:42:06.536Z,17.98
2022-10-22T12:44:35.241Z,18.03
2022-10-22T12:47:03.725Z,18.37
2022-10-22T12:49:37.802Z,18.19
2022-10-22T12:52:10.973Z,18.13
2022-10-22T12:54:43.374Z,18.40
2022-10-22T12:57:16.143Z,18.49
2022-10-22T12:59:50.067Z,18.20
2022-10-22T13:02:22.883Z,18.13
2022-10-22T13:05:21.904Z,18.12
2022-10-22T13:07:52.782Z,18.08
2022-10-22T13:10:26.598Z,18.20
2022-10-22T13:12:59.137Z,18.15
2022-10-22T13:15:40.644Z,18.43
2022-10-22T13:18:19.663Z,18.14
2022-10-22T13:20:56.364Z,18.22
2022-10-22T13:23:26.712Z,18.53
2022-10-22T13:26:01.636Z,18.63
2022-10-22T13:28:31.953Z,18.72
2022-10-22T13:31:01.913Z,18.75
2022-10-22T13:33:33.715Z,18.86
2022-10-22T13:36:02.695Z,18.72
2022-10-22T13:38:31.456Z,18.57
2022-10-22T13:41:03.635Z,18.55
2022-10-22T13:43:31.918Z,18.61
2022-10-22T13:46:02.100Z,18.52
2022-10-22T13:48:31.486Z,18.32
2022-10-22T13:50:59.875Z,18.12
2022-10-22T13:53:30.575Z,18.24
2022-10-22T13:56:00.575Z,18.23
2022-10-22T13:58:29.186Z,18.20
2022-10-22T14:01:00.562Z,18.26
2022-10-22T14:03:33.318Z,18.15
2022-10-22T14:06:03.187Z,18.00
2022-10-22T14:08:31.490Z,18.10
2022-10-22T14:11:02.073Z,18.10
2022-10-22T14:13:30.493Z,17.95
2022-10-22T14:15:59.578Z,18.09
2022-10-22T14:18:31.802Z,17.84
2022-10-22T14:21:05.365Z,17.99
2022-10-22T14:23:35.280Z,18.15
2022-10-22T14:26:07.280Z,17.49
2022-10-22T14:28:41.359Z,17.75
2022-10-22T14:31:15.066Z,17.86
2022-10-22T14:33:43.391Z,17.85
2022-10-22T14:36:14.183Z,17.98
2022-10-22T14:38:42.859Z,18.01
2022-10-22T14:41:19.932Z,18.01
2022-10-22T14:43:48.563Z,17.95
2022-10-22T14:46:17.852Z,18.03
2022-10-22T14:48:46.805Z,17.90
2022-10-22T14:51:16.791Z,17.94
2022-10-22T14:53:45.540Z,17.87
2022-10-22T14:56:16.576Z,17.87
2022-10-22T14:58:45.846Z,17.80
2022-10-22T15:01:14.388Z,17.76
2022-10-22T15:03:42.527Z,17.67
2022-10-22T15:06:11.011Z,17.38
2022-10-22T15:08:39.745Z,17.04
2022-10-22T15:11:10.015Z,16.99
2022-10-22T15:13:41.341Z,17.03
2022-10-22T15:16:12.367Z,17.09
2022-10-22T15:18:40.667Z,16.80
2022-10-22T15:21:15.359Z,16.65
2022-10-22T15:23:44.019Z,17.01
2022-10-22T15:26:13.757Z,17.01
2022-10-22T15:28:44.021Z,16.96
2022-10-22T15:31:14.545Z,16.84
2022-10-22T15:33:43.558Z,16.97
2022-10-22T15:36:13.132Z,16.89
2022-10-22T15:38:41.691Z,16.82
2022-10-22T15:41:14.287Z,16.64
2022-10-22T15:43:44.063Z,16.72
2022-10-22T15:46:15.520Z,16.64
2022-10-22T15:48:44.210Z,16.56
2022-10-22T15:51:15.464Z,16.52
2022-10-22T15:53:44.189Z,16.52
2022-10-22T15:56:13.522Z,16.49
2022-10-22T15:58:43.641Z,16.41
2022-10-22T16:01:14.371Z,16.24
2022-10-22T16:03:44.094Z,16.26
2022-10-22T16:06:12.356Z,16.25
2022-10-22T16:08:41.818Z,16.12
2022-10-22T16:11:10.921Z,16.04
2022-10-22T16:13:38.987Z,16.09
2022-10-22T16:16:09.508Z,16.10
2022-10-22T16:18:37.485Z,16.07
2022-10-22T16:21:06.121Z,15.98
2022-10-22T16:23:35.415Z,16.09
2022-10-22T16:26:03.820Z,16.04
2022-10-22T16:31:06.319Z,15.88
2022-10-22T16:33:41.502Z,15.86
2022-10-22T16:36:17.686Z,15.58
2022-10-22T16:38:46.447Z,15.59
2022-10-22T16:41:16.591Z,15.73
2022-10-22T16:43:47.203Z,15.68
2022-10-22T16:46:16.345Z,15.65
2022-10-22T16:48:48.429Z,15.44
2022-10-22T16:51:18.704Z,15.44
2022-10-22T16:53:48.060Z,14.83
2022-10-22T16:56:17.446Z,15.31
2022-10-22T16:58:47.039Z,15.27
2022-10-22T17:01:18.003Z,15.19
2022-10-22T17:03:48.753Z,15.23
2022-10-22T17:06:16.756Z,15.20
2022-10-22T17:08:45.195Z,15.29
2022-10-22T17:11:17.245Z,15.24
2022-10-22T17:13:47.242Z,15.04
2022-10-22T17:16:17.444Z,15.11
2022-10-22T17:18:47.518Z,15.12
2022-10-22T17:21:17.692Z,15.12
2022-10-22T17:23:46.231Z,15.00
2022-10-22T17:26:20.907Z,14.94
2022-10-22T17:28:49.827Z,14.86
2022-10-22T17:31:20.718Z,14.93
2022-10-22T17:33:51.226Z,14.79
2022-10-22T17:36:20.385Z,14.84
2022-10-22T17:38:51.624Z,14.34
2022-10-22T17:41:21.896Z,14.81
2022-10-22T17:43:50.638Z,14.78
2022-10-22T17:46:20.472Z,14.75
2022-10-22T17:48:52.738Z,14.56
2022-10-22T17:51:22.182Z,14.48
2022-10-22T17:53:51.351Z,14.24
2022-10-22T17:56:21.785Z,14.10
2022-10-22T17:58:50.705Z,14.37
2022-10-22T18:01:22.325Z,14.31
2022-10-22T18:03:52.674Z,14.42
2022-10-22T18:06:20.796Z,14.36
2022-10-22T18:08:49.218Z,14.19
2022-10-22T18:11:20.006Z,14.28
2022-10-22T18:13:50.640Z,14.23
2022-10-22T18:16:19.218Z,14.26
2022-10-22T18:18:49.424Z,14.12
2022-10-22T18:21:19.793Z,14.15
2022-10-22T18:23:48.163Z,14.06
2022-10-22T18:26:19.364Z,13.99
2022-10-22T18:28:50.482Z,14.01
2022-10-22T18:31:21.375Z,14.05
2022-10-22T18:33:49.862Z,14.03
2022-10-22T18:36:22.582Z,14.02
2022-10-22T18:38:51.519Z,14.04
2022-10-22T18:41:19.928Z,14.02
2022-10-22T18:43:51.847Z,13.99
2022-10-22T18:46:20.198Z,13.99
2022-10-22T18:48:49.065Z,13.94
2022-10-22T18:51:17.374Z,13.81
2022-10-22T18:53:59.028Z,13.77
2022-10-22T18:56:33.872Z,13.33
2022-10-22T18:59:02.415Z,13.11
2022-10-22T19:01:30.815Z,13.25
2022-10-22T19:03:59.300Z,13.39
2022-10-22T19:06:34.522Z,13.42
2022-10-22T19:09:07.893Z,13.14
2022-10-22T19:11:37.796Z,13.11
2022-10-22T19:14:05.928Z,13.15
2022-10-22T19:16:35.296Z,13.20
2022-10-22T19:19:06.617Z,13.28
2022-10-22T19:21:35.819Z,13.33
2022-10-22T19:24:04.458Z,13.30
2022-10-22T19:26:34.363Z,13.33
2022-10-22T19:29:03.115Z,13.11
2022-10-22T19:31:32.670Z,12.77
2022-10-22T19:34:02.697Z,12.87
2022-10-22T19:36:32.776Z,12.48
2022-10-22T19:39:01.843Z,12.64
2022-10-22T19:41:32.054Z,12.75
2022-10-22T19:44:02.465Z,12.65
2022-10-22T19:46:33.312Z,12.46
2022-10-22T19:49:04.155Z,12.43
2022-10-22T19:51:34.622Z,12.47
2022-10-22T19:54:05.010Z,12.08
2022-10-22T19:56:35.304Z,12.19
2022-10-22T19:59:06.178Z,12.01
2022-10-22T20:01:35.164Z,12.11
2022-10-22T20:04:05.012Z,12.15
2022-10-22T20:06:33.790Z,12.23
2022-10-22T20:09:03.122Z,11.86
2022-10-22T20:11:31.826Z,11.91
2022-10-22T20:14:01.018Z,11.74
2022-10-22T20:16:31.795Z,11.85
2022-10-22T20:19:05.715Z,11.62
2022-10-22T20:21:34.706Z,11.65
2022-10-22T20:24:03.552Z,11.76
2022-10-22T20:26:32.827Z,11.96
2022-10-22T20:29:01.355Z,12.06
2022-10-22T20:31:33.567Z,12.08
2022-10-22T20:34:02.584Z,12.06
2022-10-22T20:36:32.796Z,12.05
2022-10-22T20:39:02.983Z,12.03
2022-10-22T20:41:31.030Z,12.17
2022-10-22T20:43:59.135Z,11.83
2022-10-22T20:46:31.254Z,12.04
2022-10-22T20:49:03.072Z,11.62
2022-10-22T20:51:31.770Z,11.20
2022-10-22T20:54:00.569Z,11.67
2022-10-22T20:56:29.337Z,11.39
2022-10-22T20:59:04.516Z,11.35
2022-10-22T21:01:35.168Z,11.33
2022-10-22T21:04:05.484Z,11.13
2022-10-22T21:06:34.380Z,11.10
2022-10-22T21:09:02.876Z,11.08
2022-10-22T21:11:31.691Z,11.24
2022-10-22T21:14:00.534Z,10.84
2022-10-22T21:16:28.972Z,10.92
2022-10-22T21:18:57.497Z,11.27
2022-10-22T21:21:27.308Z,11.26
2022-10-22T21:23:55.507Z,10.69
2022-10-22T21:26:24.300Z,10.75
2022-10-22T21:28:52.564Z,10.75
2022-10-22T21:31:22.439Z,10.65
2022-10-22T21:33:51.715Z,10.94
2022-10-22T21:36:23.153Z,11.01
2022-10-22T21:38:54.106Z,10.90
2022-10-22T21:41:24.673Z,10.59
2022-10-22T21:43:53.097Z,10.77
2022-10-22T21:46:25.749Z,10.98
2022-10-22T21:48:55.412Z,10.65
2022-10-22T21:51:25.481Z,10.57
2022-10-22T21:53:56.995Z,10.76
2022-10-22T21:56:27.207Z,11.02
2022-10-22T21:58:56.395Z,10.59
2022-10-22T22:01:25.405Z,10.43
2022-10-22T22:03:55.012Z,10.19
2022-10-22T22:06:28.360Z,10.45
2022-10-22T22:09:00.493Z,10.58
2022-10-22T22:11:29.997Z,10.44
2022-10-22T22:13:59.708Z,10.48
2022-10-22T22:16:29.883Z,10.52
2022-10-22T22:18:59.495Z,10.38
2022-10-22T22:21:29.345Z,10.52
2022-10-22T22:24:00.247Z,10.55
2022-10-22T22:26:30.378Z,10.51
2022-10-22T22:28:59.829Z,10.53
2022-10-22T22:31:29.553Z,10.59
2022-10-22T22:34:02.439Z,10.76
2022-10-22T22:36:35.245Z,10.59
2022-10-22T22:39:05.299Z,10.49
2022-10-22T22:41:33.917Z,10.40
2022-10-22T22:44:02.164Z,10.54
2022-10-22T22:46:30.534Z,9.50
2022-10-22T22:48:59.307Z,9.93
2022-10-22T22:51:27.985Z,10.07
2022-10-22T22:53:58.148Z,10.53
2022-10-22T22:56:30.315Z,10.56
2022-10-22T22:58:59.902Z,10.63
2022-10-22T23:01:30.423Z,10.74
2022-10-22T23:04:00.759Z,10.67
2022-10-22T23:06:30.808Z,10.35
2022-10-22T23:08:59.796Z,10.21
2022-10-22T23:11:30.171Z,10.30
2022-10-22T23:14:00.256Z,10.02
2022-10-22T23:16:31.002Z,10.25
2022-10-22T23:19:02.283Z,9.85
2022-10-22T23:21:32.291Z,10.02
2022-10-22T23:24:03.085Z,10.09
2022-10-22T23:26:35.458Z,10.26
2022-10-22T23:29:04.700Z,10.25
2022-10-22T23:31:33.332Z,10.60
2022-10-22T23:34:02.050Z,10.51
2022-10-22T23:36:31.710Z,10.31
2022-10-22T23:38:59.801Z,10.21
2022-10-22T23:41:28.228Z,10.30
2022-10-22T23:43:58.983Z,10.21
2022-10-22T23:46:27.761Z,10.45
2022-10-22T23:48:57.895Z,10.26
2022-10-22T23:51:27.153Z,10.26
2022-10-22T23:53:57.744Z,10.38
2022-10-22T23:56:26.785Z,10.41
2022-10-22T23:58:56.087Z,10.22
